Time;durP1;ratioP1;P1;durP2;ratioP2;P2;SDS_P1;SDS_P2;PMS_P1;PMS_P2;Temp;Humidity;BMP_temperature;BMP_pressure;BME280_temperature;BME280_humidity;BME280_pressure;Samples;Min_cycle;Max_cycle;Signal;HPM_P1;HPM_P2
2022/09/22 00:01:00;;;;;;;26.77;22.52;;;;;;;7.84;100.00;102315.72;5215913;28;20061;-66
2022/09/22 00:03:33;;;;;;;29.20;24.60;;;;;;;7.69;100.00;102306.59;5216297;28;20056;-67
2022/09/22 00:06:10;;;;;;;30.50;25.70;;;;;;;7.64;100.00;102313.88;5223107;28;20025;-66
2022/09/22 00:08:46;;;;;;;31.00;26.45;;;;;;;7.61;100.00;102304.25;5214272;28;20303;-66
2022/09/22 00:11:20;;;;;;;27.92;24.88;;;;;;;7.70;100.00;102297.69;5225334;28;20033;-66
2022/09/22 00:13:53;;;;;;;;;;;;;;;7.73;100.00;102308.19;5216335;28;20135;-68
2022/09/22 00:16:28;;;;;;;30.83;26.73;;;;;;;7.57;100.00;102312.38;5221415;28;19929;-66
2022/09/22 00:18:59;;;;;;;28.23;25.20;;;;;;;7.64;100.00;102300.59;5228643;28;20045;-66
2022/09/22 00:21:31;;;;;;;29.42;26.02;;;;;;;7.67;100.00;102297.84;5223063;28;20080;-65
2022/09/22 00:24:05;;;;;;;29.85;26.52;;;;;;;7.58;100.00;102301.72;5214037;28;20647;-65
2022/09/22 00:26:37;;;;;;;32.00;27.20;;;;;;;7.65;100.00;102299.66;5219167;28;20124;-65
2022/09/22 00:29:09;;;;;;;33.00;26.77;;;;;;;7.50;100.00;102303.81;5223063;28;20041;-67
2022/09/22 00:31:42;;;;;;;32.20;27.17;;;;;;;7.46;100.00;102304.88;5226205;28;20029;-66
2022/09/22 00:34:16;;;;;;;30.30;26.05;;;;;;;7.45;100.00;102296.00;5225464;28;20033;-66
2022/09/22 00:36:48;;;;;;;32.85;27.33;;;;;;;7.53;100.00;102308.13;5227366;28;20029;-66
2022/09/22 00:39:19;;;;;;;34.20;27.50;;;;;;;7.49;100.00;102306.53;5230088;28;20490;-65
2022/09/22 00:41:51;;;;;;;30.17;26.77;;;;;;;7.56;100.00;102300.06;5219068;28;20026;-67
2022/09/22 00:44:25;;;;;;;31.25;26.90;;;;;;;7.53;100.00;102300.16;5227461;28;20030;-66
2022/09/22 00:47:24;;;;;;;33.20;27.60;;;;;;;7.52;100.00;102298.44;5226957;28;20092;-66
2022/09/22 00:50:08;;;;;;;31.65;25.35;;;;;;;7.43;100.00;102297.88;5233069;28;20040;-66
2022/09/22 00:52:47;;;;;;;30.45;26.48;;;;;;;7.44;100.00;102296.97;5235323;28;20029;-66
2022/09/22 00:55:22;;;;;;;32.42;28.20;;;;;;;7.48;100.00;102297.72;5230422;28;20025;-66
2022/09/22 00:57:55;;;;;;;33.97;26.52;;;;;;;7.34;100.00;102298.22;5238759;28;20033;-66
2022/09/22 01:00:27;;;;;;;31.83;25.70;;;;;;;7.32;100.00;102293.91;5226530;28;20111;-66
2022/09/22 01:03:02;;;;;;;30.40;26.38;;;;;;;7.33;100.00;102287.69;5228455;28;20291;-66
2022/09/22 01:05:35;;;;;;;32.25;27.67;;;;;;;7.29;100.00;102283.41;5231836;28;20033;-66
2022/09/22 01:08:07;;;;;;;34.38;27.58;;;;;;;7.27;100.00;102288.81;5234959;28;20067;-66
2022/09/22 01:10:39;;;;;;;34.03;27.85;;;;;;;7.21;100.00;102279.28;5238865;28;20376;-66
2022/09/22 01:13:31;;;;;;;34.47;29.85;;;;;;;7.30;100.00;102274.53;5235084;28;20083;-65
2022/09/22 01:16:28;;;;;;;33.80;27.25;;;;;;;7.26;100.00;102269.34;5231873;28;20046;-66
2022/09/22 01:19:39;;;;;;;32.65;28.20;;;;;;;7.30;100.00;102269.22;5223790;28;20486;-66
2022/09/22 01:22:22;;;;;;;32.80;26.85;;;;;;;7.21;100.00;102266.03;5217044;28;20049;-66
2022/09/22 01:25:15;;;;;;;35.95;28.50;;;;;;;7.25;100.00;102261.44;5219024;28;20144;-66
2022/09/22 01:28:15;;;;;;;33.25;28.83;;;;;;;7.19;100.00;102259.91;5225251;28;20038;-66
2022/09/22 01:30:56;;;;;;;33.42;26.65;;;;;;;7.16;100.00;102259.16;5226660;28;20513;-66
2022/09/22 01:33:42;;;;;;;32.85;26.55;;;;;;;7.17;100.00;102260.88;5221693;28;20426;-66
2022/09/22 01:36:24;;;;;;;31.27;27.05;;;;;;;7.12;100.00;102262.88;5216953;28;20032;-66
2022/09/22 01:39:29;;;;;;;30.73;25.80;;;;;;;7.21;100.00;102254.50;5225109;28;20425;-68
2022/09/22 01:42:07;;;;;;;29.67;26.45;;;;;;;7.09;100.00;102257.66;5222783;28;20069;-66
2022/09/22 01:44:51;;;;;;;30.95;26.65;;;;;;;7.03;100.00;102248.16;5218634;28;20034;-66
2022/09/22 01:47:30;;;;;;;28.92;25.83;;;;;;;7.02;100.00;102246.44;5217153;28;20108;-66
2022/09/22 01:50:12;;;;;;;30.85;27.35;;;;;;;7.05;100.00;102243.66;5233729;28;20025;-66
2022/09/22 01:52:44;;;;;;;32.05;27.92;;;;;;;7.03;100.00;102248.16;5233265;28;20071;-66
2022/09/22 01:55:21;;;;;;;29.02;25.90;;;;;;;7.01;100.00;102248.19;5228937;28;20053;-66
2022/09/22 01:58:02;;;;;;;30.58;27.30;;;;;;;6.97;100.00;102238.63;5230128;28;20223;-66
2022/09/22 02:00:38;;;;;;;30.95;26.30;;;;;;;6.99;100.00;102246.53;5229062;28;20164;-66
2022/09/22 02:03:15;;;;;;;32.38;27.50;;;;;;;6.93;100.00;102239.69;5226979;28;20033;-66
2022/09/22 02:05:55;;;;;;;34.15;27.95;;;;;;;6.96;100.00;102236.03;5235058;28;20472;-66
2022/09/22 02:08:43;;;;;;;33.63;26.40;;;;;;;6.92;100.00;102227.31;5230434;28;20496;-66
2022/09/22 02:11:15;;;;;;;33.97;27.00;;;;;;;6.88;100.00;102225.72;5231542;28;20104;-66
2022/09/22 02:13:47;;;;;;;30.77;27.42;;;;;;;6.86;100.00;102232.88;5235388;28;20037;-66
2022/09/22 02:16:21;;;;;;;32.33;27.27;;;;;;;6.89;100.00;102229.25;5236536;28;20032;-66
2022/09/22 02:19:05;;;;;;;29.52;26.35;;;;;;;6.82;100.00;102226.81;5231388;28;20025;-66
2022/09/22 02:21:42;;;;;;;;;;;;;;;6.93;100.00;102225.56;5238846;28;20154;-66
2022/09/22 02:24:39;;;;;;;29.13;25.00;;;;;;;6.91;100.00;102212.34;5229868;28;19916;-66
2022/09/22 02:27:25;;;;;;;34.60;28.50;;;;;;;6.89;100.00;102223.97;5228099;28;20455;-67
2022/09/22 02:30:04;;;;;;;30.95;27.13;;;;;;;6.91;100.00;102211.50;5229748;28;20037;-66
2022/09/22 02:32:39;;;;;;;30.73;25.50;;;;;;;6.82;100.00;102216.22;5225210;28;20048;-65
2022/09/22 02:35:11;;;;;;;29.60;25.65;;;;;;;6.87;100.00;102211.59;5229294;28;20037;-65
2022/09/22 02:38:01;;;;;;;29.33;25.42;;;;;;;6.82;100.00;102215.34;5236022;28;20094;-66
2022/09/22 02:40:46;;;;;;;30.50;25.67;;;;;;;6.78;100.00;102211.94;5220376;28;20079;-65
2022/09/22 02:43:28;;;;;;;28.45;23.80;;;;;;;6.74;100.00;102215.66;5224932;28;20032;-65
2022/09/22 02:46:14;;;;;;;26.75;23.73;;;;;;;6.74;100.00;102212.13;5225317;28;20060;-65
2022/09/22 02:48:50;;;;;;;28.10;25.08;;;;;;;6.65;100.00;102202.72;5232677;28;20026;-65
2022/09/22 02:51:21;;;;;;;30.55;25.33;;;;;;;6.66;100.00;102197.38;5232665;28;20035;-66
2022/09/22 02:53:53;;;;;;;29.33;25.35;;;;;;;6.60;100.00;102197.63;5228067;28;20022;-66
2022/09/22 02:56:24;;;;;;;29.02;24.75;;;;;;;6.56;100.00;102192.47;5217877;28;20713;-66
2022/09/22 02:58:55;;;;;;;30.23;26.33;;;;;;;6.66;100.00;102199.19;5227427;28;20037;-66
2022/09/22 03:01:27;;;;;;;28.73;25.17;;;;;;;6.58;100.00;102198.63;5218814;28;20131;-66
2022/09/22 03:03:58;;;;;;;28.33;25.25;;;;;;;6.51;100.00;102192.66;5216885;28;20017;-66
2022/09/22 03:06:30;;;;;;;32.28;26.20;;;;;;;6.54;100.00;102196.97;5219307;28;20124;-66
2022/09/22 03:09:01;;;;;;;30.23;25.88;;;;;;;6.55;100.00;102196.06;5232901;28;20344;-66
2022/09/22 03:11:32;;;;;;;31.38;27.05;;;;;;;6.48;100.00;102191.00;5227512;28;20058;-66
2022/09/22 03:14:03;;;;;;;31.77;25.38;;;;;;;6.48;100.00;102193.66;5235448;28;20201;-66
2022/09/22 03:16:35;;;;;;;29.05;25.13;;;;;;;6.43;100.00;102185.00;5231298;28;20683;-67
2022/09/22 03:19:06;;;;;;;29.85;26.42;;;;;;;6.45;100.00;102190.25;5230398;28;20100;-66
2022/09/22 03:21:38;;;;;;;29.48;25.92;;;;;;;6.43;100.00;102185.00;5230638;28;20029;-66
2022/09/22 03:24:09;;;;;;;31.33;26.02;;;;;;;6.49;100.00;102183.91;5230580;28;20118;-66
2022/09/22 03:26:40;;;;;;;31.73;26.23;;;;;;;6.52;100.00;102183.78;5227426;28;20025;-65
2022/09/22 03:29:11;;;;;;;29.55;26.38;;;;;;;6.46;100.00;102186.66;5257314;28;20035;-66
2022/09/22 03:31:43;;;;;;;32.13;26.80;;;;;;;6.45;100.00;102185.81;5226030;28;20033;-66
2022/09/22 03:34:14;;;;;;;32.92;26.92;;;;;;;6.40;100.00;102174.50;5232726;28;20483;-66
2022/09/22 03:36:45;;;;;;;30.13;25.83;;;;;;;6.39;100.00;102180.72;5226520;28;20482;-66
2022/09/22 03:39:17;;;;;;;33.15;27.65;;;;;;;6.37;100.00;102171.97;5232101;28;20383;-66
2022/09/22 03:41:49;;;;;;;30.02;26.40;;;;;;;6.44;100.00;102175.25;5223654;28;20046;-66
2022/09/22 03:44:20;;;;;;;30.45;26.23;;;;;;;6.38;100.00;102179.00;5225321;28;20029;-65
2022/09/22 03:46:52;;;;;;;29.75;26.35;;;;;;;6.35;100.00;102171.16;5216947;28;20073;-66
2022/09/22 03:49:23;;;;;;;33.88;26.83;;;;;;;6.34;100.00;102172.06;5217424;28;20087;-66
2022/09/22 03:51:55;;;;;;;32.22;25.92;;;;;;;6.25;100.00;102183.00;5224911;28;20021;-66
2022/09/22 03:54:26;;;;;;;31.55;27.08;;;;;;;6.23;100.00;102180.44;5224584;28;20495;-66
2022/09/22 03:56:57;;;;;;;32.60;29.00;;;;;;;6.25;100.00;102181.25;5219885;28;20544;-66
2022/09/22 03:59:29;;;;;;;31.10;27.77;;;;;;;6.20;100.00;102177.91;5222167;28;20068;-66
2022/09/22 04:02:01;;;;;;;33.00;27.83;;;;;;;6.19;100.00;102170.84;5227516;28;20072;-66
2022/09/22 04:04:32;;;;;;;33.65;27.17;;;;;;;6.20;100.00;102177.03;5218493;28;20021;-66
2022/09/22 04:07:04;;;;;;;33.35;27.85;;;;;;;6.19;100.00;102177.94;5218813;28;20514;-66
2022/09/22 04:09:35;;;;;;;31.38;27.50;;;;;;;6.19;100.00;102167.34;5221252;28;20029;-66
2022/09/22 04:12:07;;;;;;;29.70;26.05;;;;;;;6.16;100.00;102165.69;5234089;28;20037;-66
2022/09/22 04:14:38;;;;;;;31.40;27.40;;;;;;;6.17;100.00;102162.09;5223826;28;20166;-65
2022/09/22 04:17:10;;;;;;;30.20;25.77;;;;;;;6.11;100.00;102162.31;5211301;28;20173;-66
2022/09/22 04:19:41;;;;;;;31.25;26.05;;;;;;;6.07;100.00;102166.00;5216723;28;20033;-66
2022/09/22 04:22:13;;;;;;;30.45;25.55;;;;;;;6.05;100.00;102163.41;5219370;28;20579;-66
2022/09/22 04:24:44;;;;;;;31.88;25.63;;;;;;;6.01;100.00;102155.66;5224957;28;20033;-65
2022/09/22 04:27:15;;;;;;;32.03;26.52;;;;;;;5.98;100.00;102159.25;5214167;28;20040;-65
2022/09/22 04:29:47;;;;;;;32.17;25.58;;;;;;;5.95;100.00;102158.50;5218814;28;20025;-66
2022/09/22 04:32:19;;;;;;;33.75;25.30;;;;;;;5.92;100.00;102151.50;5210535;28;20021;-66
2022/09/22 04:34:50;;;;;;;31.17;25.65;;;;;;;5.88;100.00;102161.34;5221630;28;20028;-66
2022/09/22 04:37:21;;;;;;;30.75;26.00;;;;;;;5.86;100.00;102159.66;5218052;28;20135;-66
2022/09/22 04:39:53;;;;;;;32.78;26.20;;;;;;;5.84;100.00;102162.38;5218761;28;20025;-65
2022/09/22 04:42:25;;;;;;;33.55;26.17;;;;;;;5.81;100.00;102162.50;5227166;28;20151;-65
2022/09/22 04:45:00;;;;;;;34.10;28.60;;;;;;;5.87;100.00;102159.63;5212149;28;20486;-66
2022/09/22 04:47:32;;;;;;;34.75;28.65;;;;;;;5.88;100.00;102160.47;5213315;28;20045;-66
2022/09/22 04:50:04;;;;;;;31.10;26.13;;;;;;;5.83;100.00;102160.66;5221937;28;20036;-66
2022/09/22 04:52:35;;;;;;;34.25;28.45;;;;;;;5.81;100.00;102164.25;5222055;28;20013;-66
2022/09/22 04:55:08;;;;;;;30.52;26.35;;;;;;;5.87;100.00;102166.72;5218428;28;20033;-65
2022/09/22 04:57:39;;;;;;;30.77;25.52;;;;;;;5.74;100.00;102152.16;5213598;28;20067;-66
2022/09/22 05:00:11;;;;;;;28.65;25.50;;;;;;;5.72;100.00;102160.16;5216633;28;20512;-65
2022/09/22 05:02:42;;;;;;;31.15;26.77;;;;;;;5.76;100.00;102158.28;5217196;28;20460;-65
2022/09/22 05:05:14;;;;;;;31.95;26.65;;;;;;;5.67;100.00;102162.94;5226448;28;20408;-65
2022/09/22 05:07:49;;;;;;;32.08;27.05;;;;;;;5.64;100.00;102167.53;5229358;28;20033;-66
2022/09/22 05:10:24;;;;;;;30.65;25.38;;;;;;;5.63;100.00;102160.47;5237404;28;20103;-65
2022/09/22 05:12:55;;;;;;;30.48;25.83;;;;;;;5.57;100.00;102158.91;5234314;28;20033;-65
2022/09/22 05:15:26;;;;;;;30.75;26.38;;;;;;;5.62;100.00;102162.28;5230660;28;20021;-66
2022/09/22 05:17:58;;;;;;;32.45;27.38;;;;;;;5.64;100.00;102168.38;5221951;28;20036;-65
2022/09/22 05:20:29;;;;;;;31.88;27.15;;;;;;;5.60;100.00;102160.56;5216714;28;20268;-65
2022/09/22 05:23:01;;;;;;;31.63;26.33;;;;;;;5.61;100.00;102167.63;5227029;28;20562;-65
2022/09/22 05:25:32;;;;;;;32.05;26.63;;;;;;;5.55;100.00;102166.03;5237492;28;20037;-65
2022/09/22 05:28:03;;;;;;;28.80;24.58;;;;;;;5.54;100.00;102172.22;5225839;28;20038;-65
2022/09/22 05:30:35;;;;;;;31.23;26.75;;;;;;;5.52;100.00;102163.47;5219590;28;20060;-65
2022/09/22 05:33:06;;;;;;;32.13;26.75;;;;;;;5.55;100.00;102170.47;5235873;28;20119;-65
2022/09/22 05:35:37;;;;;;;30.58;27.38;;;;;;;5.50;100.00;102174.16;5233171;28;20024;-65
2022/09/22 05:38:09;;;;;;;33.20;26.83;;;;;;;5.58;100.00;102175.66;5233073;28;20539;-65
2022/09/22 05:40:40;;;;;;;36.67;28.60;;;;;;;5.63;100.00;102173.72;5223647;28;20618;-65
2022/09/22 05:43:12;;;;;;;32.22;26.83;;;;;;;5.52;100.00;102178.50;5230469;28;20049;-65
2022/09/22 05:45:43;;;;;;;32.47;28.00;;;;;;;5.56;100.00;102166.91;5231779;28;20092;-65
2022/09/22 05:48:14;;;;;;;35.80;27.83;;;;;;;5.53;100.00;102172.31;5237345;28;20498;-65
2022/09/22 05:50:46;;;;;;;34.30;27.98;;;;;;;5.58;100.00;102180.94;5233802;28;20033;-66
2022/09/22 05:53:17;;;;;;;32.65;27.92;;;;;;;5.56;100.00;102181.03;5221376;28;20105;-65
2022/09/22 05:55:48;;;;;;;32.97;27.63;;;;;;;5.57;100.00;102174.78;5225083;28;20028;-65
2022/09/22 05:58:21;;;;;;;34.95;28.15;;;;;;;5.60;100.00;102172.06;5233201;28;20156;-65
2022/09/22 06:00:55;;;;;;;33.00;27.80;;;;;;;5.57;100.00;102180.09;5224276;28;20705;-65
2022/09/22 06:03:27;;;;;;;33.45;29.77;;;;;;;5.70;100.00;102177.91;5224858;28;20025;-66
2022/09/22 06:05:58;;;;;;;33.92;27.95;;;;;;;5.64;100.00;102183.41;5225914;28;21151;-66
2022/09/22 06:08:29;;;;;;;32.03;27.30;;;;;;;5.62;100.00;102183.44;5234725;28;20571;-66
2022/09/22 06:11:01;;;;;;;32.17;27.50;;;;;;;5.63;100.00;102179.00;5230220;28;20029;-66
2022/09/22 06:13:32;;;;;;;32.25;26.85;;;;;;;5.63;100.00;102187.81;5230729;28;20104;-66
2022/09/22 06:16:04;;;;;;;34.15;27.38;;;;;;;5.62;100.00;102180.81;5232403;28;20067;-65
2022/09/22 06:18:35;;;;;;;31.65;27.67;;;;;;;5.67;100.00;102185.94;5224228;28;20458;-66
2022/09/22 06:21:07;;;;;;;35.38;28.08;;;;;;;5.70;100.00;102175.25;5221030;28;20065;-66
2022/09/22 06:23:39;;;;;;;32.75;28.05;;;;;;;5.70;100.00;102183.19;5222210;28;20033;-66
2022/09/22 06:26:10;;;;;;;31.13;27.45;;;;;;;5.76;100.00;102180.31;5225943;28;20077;-66
2022/09/22 06:28:41;;;;;;;33.78;29.33;;;;;;;5.82;100.00;102172.16;5221625;28;20120;-65
2022/09/22 06:31:14;;;;;;;34.55;28.05;;;;;;;5.83;100.00;102180.94;5219984;28;20442;-65
2022/09/22 06:33:47;;;;;;;33.30;28.02;;;;;;;5.86;100.00;102175.56;5233538;28;20048;-66
2022/09/22 06:36:37;;;;;;;32.78;27.35;;;;;;;5.87;100.00;102172.88;5228264;28;20459;-66
2022/09/22 06:39:09;;;;;;;31.52;26.80;;;;;;;5.87;100.00;102169.38;5230956;28;20052;-65
2022/09/22 06:41:40;;;;;;;31.23;26.45;;;;;;;5.90;100.00;102170.09;5237381;28;20801;-65
2022/09/22 06:44:14;;;;;;;33.75;27.45;;;;;;;5.97;100.00;102178.72;5227713;28;20499;-65
2022/09/22 06:46:45;;;;;;;34.80;28.42;;;;;;;6.00;100.00;102181.28;5223779;28;20050;-65
2022/09/22 06:49:17;;;;;;;31.40;28.00;;;;;;;6.17;100.00;102171.84;5229754;28;20546;-66
2022/09/22 06:51:50;;;;;;;32.90;25.90;;;;;;;6.13;100.00;102175.53;5229161;28;20475;-66
2022/09/22 06:54:21;;;;;;;35.03;27.65;;;;;;;6.21;100.00;102178.75;5233562;28;20725;-65
2022/09/22 06:56:52;;;;;;;36.67;27.27;;;;;;;6.32;100.00;102173.91;5227221;28;20029;-66
2022/09/22 06:59:24;;;;;;;41.10;28.45;;;;;;;6.48;100.00;102171.56;5223603;28;20129;-65
2022/09/22 07:01:55;;;;;;;39.25;31.00;;;;;;;6.46;100.00;102162.78;5229785;28;20038;-65
2022/09/22 07:04:26;;;;;;;39.88;30.20;;;;;;;6.64;100.00;102170.06;5232508;28;20029;-65
2022/09/22 07:06:58;;;;;;;36.15;29.33;;;;;;;6.57;100.00;102175.66;5234914;28;20376;-65
2022/09/22 07:09:30;;;;;;;37.60;28.95;;;;;;;6.65;100.00;102163.84;5229254;28;20033;-65
2022/09/22 07:12:01;;;;;;;39.70;29.65;;;;;;;6.85;100.00;102164.84;5230717;28;20060;-65
2022/09/22 07:14:33;;;;;;;38.15;30.55;;;;;;;6.86;100.00;102164.78;5235826;28;20452;-65
2022/09/22 07:17:05;;;;;;;36.67;29.92;;;;;;;6.90;100.00;102164.66;5226119;28;20045;-65
2022/09/22 07:19:36;;;;;;;37.15;30.25;;;;;;;6.98;100.00;102165.19;5227159;28;20099;-65
2022/09/22 07:22:08;;;;;;;34.80;29.27;;;;;;;6.99;100.00;102165.13;5234000;28;20064;-65
2022/09/22 07:24:39;;;;;;;35.38;28.70;;;;;;;7.05;100.00;102161.38;5242429;28;20037;-65
2022/09/22 07:27:11;;;;;;;37.70;29.90;;;;;;;7.07;100.00;102156.88;5224164;28;20075;-64
2022/09/22 07:29:48;;;;;;;38.50;29.92;;;;;;;7.21;100.00;102151.00;5230499;28;20033;-65
2022/09/22 07:32:20;;;;;;;35.42;29.08;;;;;;;7.29;100.00;102155.97;5226636;28;20115;-65
2022/09/22 07:34:52;;;;;;;35.83;27.95;;;;;;;7.39;100.00;102149.38;5225736;28;20032;-64
2022/09/22 07:37:23;;;;;;;31.70;26.85;;;;;;;7.38;100.00;102151.19;5232160;28;20037;-65
2022/09/22 07:39:55;;;;;;;33.83;26.92;;;;;;;7.38;100.00;102151.19;5228201;28;20029;-65
2022/09/22 07:42:26;;;;;;;35.33;27.02;;;;;;;7.62;100.00;102151.91;5220522;28;20036;-65
2022/09/22 07:45:13;;;;;;;29.95;24.90;;;;;;;7.65;100.00;102158.88;5223406;28;20168;-65
2022/09/22 07:50:35;;;;;;;34.58;22.65;;;;;;;7.80;100.00;102158.19;5222194;28;20037;-65
2022/09/22 07:53:06;;;;;;;27.58;21.80;;;;;;;7.98;100.00;102158.34;5216328;28;20025;-65
2022/09/22 07:55:37;;;;;;;27.98;22.98;;;;;;;7.98;100.00;102164.53;5220695;28;20026;-64
2022/09/22 07:58:09;;;;;;;27.05;21.30;;;;;;;8.02;100.00;102157.28;5219084;28;20041;-65
2022/09/22 08:00:40;;;;;;;22.70;18.52;;;;;;;8.10;100.00;102156.94;5225082;28;20028;-64
2022/09/22 08:03:11;;;;;;;20.27;16.65;;;;;;;8.12;100.00;102158.56;5230787;28;20564;-65
2022/09/22 08:05:42;;;;;;;19.13;15.95;;;;;;;8.27;100.00;102156.16;5214304;28;20025;-66
2022/09/22 08:08:15;;;;;;;18.40;16.40;;;;;;;8.36;100.00;102145.09;5220578;28;20028;-65
2022/09/22 08:10:47;;;;;;;18.27;15.30;;;;;;;8.36;100.00;102145.97;5230942;28;20032;-65
2022/09/22 08:13:20;;;;;;;20.52;15.88;;;;;;;8.62;100.00;102152.75;5221827;28;20025;-65
2022/09/22 08:15:55;;;;;;;22.48;16.63;;;;;;;8.64;100.00;102147.34;5225232;28;20029;-65
2022/09/22 08:18:27;;;;;;;;;;;;;;;8.62;100.00;102150.09;5230444;28;20407;-65
2022/09/22 08:21:00;;;;;;;18.30;14.05;;;;;;;8.80;100.00;102142.16;5221640;28;19917;-65
2022/09/22 08:23:32;;;;;;;17.07;14.20;;;;;;;8.86;100.00;102146.31;5225211;28;20427;-65
2022/09/22 08:26:07;;;;;;;16.30;14.18;;;;;;;9.02;100.00;102147.31;5217362;28;20037;-65
2022/09/22 08:28:38;;;;;;;16.70;14.05;;;;;;;9.11;100.00;102140.66;5215306;28;20037;-65
2022/09/22 08:31:12;;;;;;;16.05;13.85;;;;;;;9.17;100.00;102135.91;5215616;28;20033;-65
2022/09/22 08:33:43;;;;;;;19.30;14.02;;;;;;;9.19;100.00;102138.50;5215372;28;20025;-65
2022/09/22 08:36:15;;;;;;;19.38;14.48;;;;;;;9.47;100.00;102137.94;5216383;28;20365;-65
2022/09/22 08:38:48;;;;;;;16.35;12.88;;;;;;;9.60;100.00;102135.53;5214362;28;20105;-66
2022/09/22 08:41:28;;;;;;;14.57;12.65;;;;;;;9.60;100.00;102135.53;5213119;28;20055;-65
2022/09/22 08:44:11;;;;;;;14.73;12.00;;;;;;;9.84;100.00;102132.50;5219524;28;20032;-65
2022/09/22 08:46:44;;;;;;;13.30;11.23;;;;;;;10.03;100.00;102130.59;5225242;28;20069;-65
2022/09/22 08:52:27;;;;;;;13.65;10.48;;;;;;;10.22;100.00;102138.47;5217632;28;20065;-65
2022/09/22 08:54:59;;;;;;;12.88;8.95;;;;;;;10.27;100.00;102140.88;5228243;28;20441;-65
2022/09/22 08:57:48;;;;;;;13.95;8.02;;;;;;;10.36;100.00;102140.44;5216997;28;20557;-65
2022/09/22 09:00:19;;;;;;;11.18;7.85;;;;;;;10.46;100.00;102144.28;5212602;28;20025;-66
2022/09/22 09:03:09;;;;;;;9.70;6.97;;;;;;;10.61;100.00;102137.25;5214593;28;20037;-65
2022/09/22 09:05:59;;;;;;;10.20;8.00;;;;;;;10.85;100.00;102142.16;5213179;28;20634;-65
2022/09/22 09:08:50;;;;;;;13.07;8.63;;;;;;;11.02;100.00;102144.72;5212530;28;20029;-66
2022/09/22 09:11:56;;;;;;;10.73;7.10;;;;;;;11.03;100.00;102149.13;5225694;28;20033;-65
2022/09/22 09:14:49;;;;;;;8.35;6.40;;;;;;;11.11;100.00;102146.84;5225482;28;20034;-65
2022/09/22 09:17:27;;;;;;;9.95;7.07;;;;;;;11.30;100.00;102145.78;5218353;28;20030;-65
2022/09/22 09:20:15;;;;;;;7.97;6.50;;;;;;;11.37;100.00;102156.03;5224597;28;20034;-65
2022/09/22 09:22:54;;;;;;;8.65;7.07;;;;;;;11.60;100.00;102150.25;5222096;28;20018;-65
2022/09/22 09:25:35;;;;;;;10.45;6.25;;;;;;;11.75;100.00;102146.66;5228953;28;20033;-65
2022/09/22 09:28:13;;;;;;;7.82;5.10;;;;;;;11.90;100.00;102145.75;5220077;28;20099;-65
2022/09/22 09:30:48;;;;;;;7.60;5.03;;;;;;;11.83;100.00;102139.06;5224798;28;20029;-66
2022/09/22 09:33:42;;;;;;;7.75;5.28;;;;;;;12.02;100.00;102146.81;5220755;28;20034;-66
2022/09/22 09:36:21;;;;;;;5.57;3.90;;;;;;;12.06;100.00;102144.81;5222921;28;20030;-66
2022/09/22 09:38:56;;;;;;;8.70;3.67;;;;;;;12.18;100.00;102146.75;5227409;28;20028;-66
2022/09/22 09:41:30;;;;;;;8.23;4.30;;;;;;;12.26;100.00;102143.59;5224890;28;20129;-66
2022/09/22 09:44:03;;;;;;;;;;;;;;;12.34;100.00;102139.44;5230185;28;20037;-66
2022/09/22 09:46:44;;;;;;;6.72;4.47;;;;;;;12.38;100.00;102141.94;5227441;28;20373;-66
2022/09/22 09:49:18;;;;;;;9.38;5.38;;;;;;;12.57;100.00;102145.16;5226325;28;20101;-66
2022/09/22 09:51:54;;;;;;;7.88;4.05;;;;;;;12.91;100.00;102148.34;5217266;28;20128;-66
2022/09/22 09:54:26;;;;;;;5.78;3.53;;;;;;;13.07;97.57;102145.50;5222588;28;20083;-66
2022/09/22 09:57:03;;;;;;;5.45;4.30;;;;;;;13.08;96.22;102137.38;5223075;28;20474;-66
2022/09/22 10:02:29;;;;;;;5.88;4.05;;;;;;;13.15;97.80;102135.13;5218682;28;20038;-66
2022/09/22 10:05:17;;;;;;;5.05;3.92;;;;;;;13.17;98.62;102137.69;5220821;28;20060;-66
2022/09/22 10:07:56;;;;;;;6.22;3.70;;;;;;;13.30;95.96;102126.09;5219677;28;20082;-66
2022/09/22 10:10:28;;;;;;;5.05;3.00;;;;;;;13.56;93.08;102130.63;5220165;28;20064;-66
2022/09/22 10:12:59;;;;;;;5.00;3.15;;;;;;;13.57;94.84;102127.00;5218793;28;20109;-67
2022/09/22 10:15:41;;;;;;;5.82;3.80;;;;;;;13.66;92.82;102129.91;5218461;28;20038;-66
2022/09/22 10:18:25;;;;;;;6.55;4.10;;;;;;;13.72;89.08;102125.94;5227962;28;20037;-66
2022/09/22 10:21:20;;;;;;;5.13;3.57;;;;;;;13.65;93.73;102122.84;5221018;28;20124;-66
2022/09/22 10:23:53;;;;;;;5.38;3.72;;;;;;;13.71;91.32;102126.88;5220973;28;20034;-67
2022/09/22 10:26:29;;;;;;;7.40;3.17;;;;;;;13.97;89.05;102119.72;5223250;28;20030;-66
2022/09/22 10:29:05;;;;;;;5.97;3.60;;;;;;;13.90;91.57;102119.31;5219172;28;20397;-66
2022/09/22 10:31:40;;;;;;;5.85;3.25;;;;;;;13.90;92.35;102119.31;5218441;28;20042;-67
2022/09/22 10:34:37;;;;;;;5.53;2.90;;;;;;;13.98;91.64;102112.50;5216561;28;20040;-66
2022/09/22 10:37:11;;;;;;;5.55;2.90;;;;;;;14.09;86.81;102109.94;5241861;28;20506;-66
2022/09/22 10:39:48;;;;;;;5.45;3.38;;;;;;;14.07;84.87;102109.19;5231456;28;20025;-66
2022/09/22 10:42:26;;;;;;;6.35;3.58;;;;;;;14.07;86.01;102101.13;5223655;28;20073;-66
2022/09/22 10:45:03;;;;;;;4.68;2.40;;;;;;;14.30;87.33;102097.69;5232695;28;20385;-66
2022/09/22 10:47:55;;;;;;;3.80;2.30;;;;;;;14.30;86.15;102096.78;5233010;28;20087;-66
2022/09/22 10:50:49;;;;;;;4.45;2.50;;;;;;;14.36;83.26;102096.34;5221504;28;20486;-66
2022/09/22 10:53:41;;;;;;;6.32;3.47;;;;;;;14.27;84.63;102102.41;5227741;28;20029;-66
2022/09/22 10:56:24;;;;;;;5.57;3.50;;;;;;;14.26;87.60;102090.78;5224037;28;20042;-66
2022/09/22 10:59:46;;;;;;;4.60;2.55;;;;;;;14.30;88.54;102086.94;5229378;28;20029;-67
2022/09/22 11:02:37;;;;;;;4.28;2.10;;;;;;;14.46;86.55;102097.41;5238788;28;20399;-66
2022/09/22 11:14:44;;;;;;;4.43;2.42;;;;;;;14.60;83.62;102071.41;5232856;28;20057;-66
2022/09/22 11:17:53;;;;;;;6.00;2.85;;;;;;;14.67;84.75;102070.84;5231266;28;20049;-66
2022/09/22 11:20:44;;;;;;;4.03;2.20;;;;;;;14.68;83.72;102083.28;5229499;28;20069;-66
2022/09/22 11:23:42;;;;;;;4.65;2.30;;;;;;;14.69;82.16;102079.63;5226751;28;21057;-66
2022/09/22 11:26:42;;;;;;;4.88;2.70;;;;;;;14.71;83.83;102082.22;5232315;28;20112;-66
2022/09/22 11:29:32;;;;;;;3.28;2.40;;;;;;;14.63;84.52;102071.16;5240135;28;20560;-66
2022/09/22 11:32:16;;;;;;;4.53;2.30;;;;;;;14.81;78.60;102068.94;5236325;28;20032;-66
2022/09/22 11:35:12;;;;;;;4.72;2.30;;;;;;;14.89;79.76;102063.84;5230359;28;20724;-66
2022/09/22 11:38:21;;;;;;;3.42;1.88;;;;;;;14.85;80.48;102065.06;5230020;28;20080;-66
2022/09/22 11:41:03;;;;;;;3.38;1.40;;;;;;;14.97;79.11;102064.09;5237409;28;20403;-66
2022/09/22 11:43:49;;;;;;;2.60;1.50;;;;;;;15.21;76.79;102068.63;5236144;28;20497;-66
2022/09/22 11:46:37;;;;;;;3.65;1.52;;;;;;;15.19;79.36;102057.97;5234027;28;20117;-66
2022/09/22 11:49:36;;;;;;;2.88;1.30;;;;;;;15.34;79.06;102052.38;5238440;28;20075;-66
2022/09/22 11:52:25;;;;;;;2.53;1.20;;;;;;;15.54;78.32;102049.00;5230501;28;20430;-66
2022/09/22 11:55:01;;;;;;;3.47;1.20;;;;;;;15.67;74.09;102047.06;5227612;28;20038;-66
2022/09/22 11:57:39;;;;;;;3.40;1.08;;;;;;;15.61;71.38;102038.59;5226398;28;20071;-66
2022/09/22 12:00:17;;;;;;;4.07;0.98;;;;;;;15.56;73.11;102035.44;5230784;28;20033;-66
2022/09/22 12:03:01;;;;;;;2.55;1.05;;;;;;;15.71;72.66;102031.53;5225913;28;20467;-66
2022/09/22 12:05:50;;;;;;;2.77;1.10;;;;;;;15.68;76.12;102032.59;5217367;28;20022;-66
2022/09/22 12:08:27;;;;;;;2.88;1.20;;;;;;;15.74;70.18;102020.53;5235114;28;20034;-66
2022/09/22 12:11:00;;;;;;;4.50;1.20;;;;;;;15.74;75.00;102020.53;5227410;28;20029;-66
2022/09/22 12:13:32;;;;;;;3.25;1.35;;;;;;;15.83;71.66;102019.81;5234363;28;20039;-66
2022/09/22 12:16:17;;;;;;;4.47;1.33;;;;;;;15.81;73.42;102015.53;5235726;28;20033;-66